createdAt,value
2022-12-23T00:00:35.291Z,18.77
2022-12-23T00:03:04.515Z,15.80
2022-12-23T00:05:44.044Z,21.55
2022-12-23T00:08:11.282Z,13.07
2022-12-23T00:10:43.184Z,19.67
2022-12-23T00:13:30.560Z,19.00
2022-12-23T00:16:03.027Z,35.08
2022-12-23T00:18:33.170Z,19.85
2022-12-23T00:21:08.591Z,16.60
2022-12-23T00:23:39.207Z,12.10
2022-12-23T00:26:17.874Z,12.35
2022-12-23T00:28:45.307Z,15.23
2022-12-23T00:31:16.946Z,17.88
2022-12-23T00:33:48.415Z,14.90
2022-12-23T00:36:31.947Z,19.75
2022-12-23T00:39:21.133Z,14.30
2022-12-23T00:42:14.758Z,25.67
2022-12-23T00:44:53.977Z,14.18
2022-12-23T00:47:51.511Z,12.43
2022-12-23T00:50:21.466Z,10.65
2022-12-23T00:52:49.405Z,12.07
2022-12-23T00:55:17.145Z,11.60
2022-12-23T00:57:44.361Z,13.98
2022-12-23T01:00:12.378Z,13.52
2022-12-23T01:02:58.515Z,11.05
2022-12-23T01:05:39.374Z,19.27
2022-12-23T01:08:14.224Z,12.90
2022-12-23T01:10:41.840Z,15.05
2022-12-23T01:13:09.582Z,14.15
2022-12-23T01:15:37.049Z,12.95
2022-12-23T01:18:07.788Z,11.52
2022-12-23T01:20:38.984Z,17.08
2022-12-23T01:23:09.635Z,13.20
2022-12-23T01:25:38.652Z,16.08
2022-12-23T01:28:05.744Z,14.52
2022-12-23T01:30:32.760Z,29.25
2022-12-23T01:33:00.390Z,16.42
2022-12-23T01:35:30.041Z,15.52
2022-12-23T01:37:57.653Z,12.65
2022-12-23T01:40:24.960Z,13.85
2022-12-23T01:42:52.541Z,20.60
2022-12-23T01:45:29.201Z,17.15
2022-12-23T01:48:15.102Z,15.38
2022-12-23T01:50:45.581Z,16.65
2022-12-23T01:53:33.384Z,16.05
2022-12-23T01:56:13.505Z,15.90
2022-12-23T01:58:46.515Z,18.75
2022-12-23T02:01:33.447Z,12.93
2022-12-23T02:04:12.036Z,17.60
2022-12-23T02:07:03.037Z,21.52
2022-12-23T02:09:36.979Z,18.80
2022-12-23T02:12:34.226Z,19.05
2022-12-23T02:17:56.496Z,22.58
2022-12-23T02:20:30.189Z,37.60
2022-12-23T02:23:13.165Z,29.27
2022-12-23T02:25:58.809Z,19.35
2022-12-23T02:28:50.301Z,19.48
2022-12-23T02:31:42.549Z,27.00
2022-12-23T02:34:22.614Z,40.25
2022-12-23T02:37:14.494Z,30.15
2022-12-23T02:39:54.624Z,21.20
2022-12-23T02:42:33.680Z,19.13
2022-12-23T02:45:24.685Z,18.10
2022-12-23T02:48:07.996Z,24.88
2022-12-23T02:50:39.436Z,17.02
2022-12-23T02:53:29.839Z,24.92
2022-12-23T02:56:02.445Z,30.98
2022-12-23T02:58:37.642Z,36.22
2022-12-23T03:01:07.540Z,66.43
2022-12-23T03:03:36.933Z,37.20
2022-12-23T03:06:23.159Z,30.85
2022-12-23T03:09:00.746Z,23.08
2022-12-23T03:12:02.008Z,29.60
2022-12-23T03:15:09.307Z,19.13
2022-12-23T03:18:00.865Z,23.90
2022-12-23T03:20:51.370Z,24.60
2022-12-23T03:23:30.969Z,19.15
2022-12-23T03:26:14.772Z,24.83
2022-12-23T03:29:00.643Z,24.10
2022-12-23T03:31:31.210Z,18.23
2022-12-23T03:34:07.023Z,22.27
2022-12-23T03:36:49.254Z,18.80
2022-12-23T03:39:27.360Z,25.00
2022-12-23T03:42:01.221Z,24.95
2022-12-23T03:45:19.186Z,62.95
2022-12-23T03:47:45.464Z,18.25
2022-12-23T03:50:18.946Z,57.55
2022-12-23T03:53:35.766Z,44.22
2022-12-23T03:56:13.466Z,36.28
2022-12-23T03:59:11.540Z,34.38
2022-12-23T04:02:26.809Z,17.20
2022-12-23T04:05:14.346Z,95.63
2022-12-23T04:08:08.264Z,25.38
2022-12-23T04:10:38.773Z,17.92
2022-12-23T04:13:08.897Z,28.00
2022-12-23T04:15:43.723Z,71.18
2022-12-23T04:18:11.790Z,36.05
2022-12-23T04:20:39.256Z,21.95
2022-12-23T04:23:09.779Z,21.88
2022-12-23T04:25:37.574Z,27.77
2022-12-23T04:28:18.571Z,45.00
2022-12-23T04:30:48.779Z,97.40
2022-12-23T04:33:16.256Z,21.23
2022-12-23T04:35:45.903Z,20.02
2022-12-23T04:38:13.525Z,18.58
2022-12-23T04:40:41.002Z,28.65
2022-12-23T04:43:10.746Z,18.95
2022-12-23T04:45:40.936Z,22.45
2022-12-23T04:48:08.099Z,18.67
2022-12-23T04:50:45.607Z,29.90
2022-12-23T04:53:13.505Z,15.93
2022-12-23T04:55:40.881Z,25.40
2022-12-23T04:58:14.445Z,18.60
2022-12-23T05:00:41.966Z,26.13
2022-12-23T05:03:14.609Z,24.77
2022-12-23T05:05:45.091Z,19.50
2022-12-23T05:08:12.522Z,27.50
2022-12-23T05:10:40.038Z,28.02
2022-12-23T05:13:10.361Z,25.67
2022-12-23T05:15:40.233Z,28.10
2022-12-23T05:18:07.384Z,25.80
2022-12-23T05:20:35.499Z,16.80
2022-12-23T05:23:06.266Z,21.77
2022-12-23T05:25:38.022Z,21.88
2022-12-23T05:30:36.582Z,29.55
2022-12-23T05:33:06.078Z,34.85
2022-12-23T05:35:36.777Z,27.88
2022-12-23T05:38:04.805Z,28.88
2022-12-23T05:40:34.080Z,24.30
2022-12-23T05:43:01.956Z,19.70
2022-12-23T05:45:35.467Z,19.92
2022-12-23T05:48:02.613Z,22.50
2022-12-23T05:50:29.859Z,20.95
2022-12-23T05:52:57.926Z,22.38
2022-12-23T05:55:26.721Z,17.27
2022-12-23T05:57:55.501Z,18.20
2022-12-23T06:00:23.062Z,20.33
2022-12-23T06:02:54.630Z,18.23
2022-12-23T06:05:22.899Z,19.17
2022-12-23T06:07:54.756Z,25.35
2022-12-23T06:10:27.236Z,19.33
2022-12-23T06:12:57.094Z,24.35
2022-12-23T06:15:24.467Z,18.08
2022-12-23T06:18:02.274Z,16.73
2022-12-23T06:20:41.566Z,18.33
2022-12-23T06:23:09.468Z,17.50
2022-12-23T06:25:38.950Z,20.23
2022-12-23T06:28:10.107Z,20.20
2022-12-23T06:30:38.179Z,22.65
2022-12-23T06:33:06.289Z,22.83
2022-12-23T06:35:34.354Z,18.13
2022-12-23T06:41:53.480Z,25.60
2022-12-23T06:44:24.258Z,21.50
2022-12-23T06:46:51.506Z,21.73
2022-12-23T06:49:24.371Z,40.92
2022-12-23T06:51:51.704Z,37.33
2022-12-23T06:54:22.849Z,41.65
2022-12-23T06:57:01.347Z,40.25
2022-12-23T06:59:33.852Z,32.72
2022-12-23T07:02:14.505Z,43.80
2022-12-23T07:04:44.901Z,42.25
2022-12-23T07:07:15.171Z,32.88
2022-12-23T07:09:42.580Z,35.10
2022-12-23T07:12:10.302Z,27.08
2022-12-23T07:15:07.347Z,26.52
2022-12-23T07:17:47.399Z,28.65
2022-12-23T07:20:19.525Z,25.27
2022-12-23T07:22:57.162Z,19.13
2022-12-23T07:25:30.915Z,21.40
2022-12-23T07:27:58.193Z,18.80
2022-12-23T07:30:26.243Z,21.33
2022-12-23T07:32:54.442Z,21.63
2022-12-23T07:35:30.584Z,21.33
2022-12-23T07:38:03.941Z,18.65
2022-12-23T07:40:31.108Z,22.77
2022-12-23T07:43:00.202Z,18.20
2022-12-23T07:45:30.207Z,26.63
2022-12-23T07:48:02.488Z,23.10
2022-12-23T07:50:33.402Z,26.02
2022-12-23T07:53:03.238Z,21.45
2022-12-23T07:55:31.494Z,22.40
2022-12-23T07:58:05.385Z,18.65
2022-12-23T08:00:35.695Z,24.25
2022-12-23T08:03:12.329Z,19.77
2022-12-23T08:05:45.219Z,22.10
2022-12-23T08:08:14.575Z,32.90
2022-12-23T08:10:48.317Z,27.58
2022-12-23T08:13:18.627Z,27.25
2022-12-23T08:15:51.684Z,29.45
2022-12-23T08:18:19.100Z,27.90
2022-12-23T08:21:01.935Z,26.02
2022-12-23T08:23:38.334Z,23.38
2022-12-23T08:26:14.313Z,27.55
2022-12-23T08:28:44.027Z,35.03
2022-12-23T08:31:26.005Z,33.08
2022-12-23T08:33:58.018Z,23.80
2022-12-23T08:39:04.417Z,23.33
2022-12-23T08:41:35.729Z,23.13
2022-12-23T08:44:09.024Z,21.67
2022-12-23T08:46:37.432Z,18.17
2022-12-23T08:49:10.899Z,15.27
2022-12-23T08:51:42.043Z,36.53
2022-12-23T08:54:15.838Z,25.00
2022-12-23T08:56:43.147Z,16.98
2022-12-23T08:59:25.132Z,24.30
2022-12-23T09:02:02.974Z,22.27
2022-12-23T09:04:31.809Z,22.52
2022-12-23T09:07:04.742Z,20.05
2022-12-23T09:10:00.170Z,19.65
2022-12-23T09:12:32.177Z,16.35
2022-12-23T09:14:59.847Z,19.60
2022-12-23T09:17:27.675Z,15.95
2022-12-23T09:19:57.905Z,16.65
2022-12-23T09:22:35.199Z,19.63
2022-12-23T09:25:06.715Z,19.63
2022-12-23T09:27:36.046Z,20.75
2022-12-23T09:30:12.651Z,15.63
2022-12-23T09:32:44.093Z,15.18
2022-12-23T09:35:16.558Z,20.80
2022-12-23T09:38:04.443Z,15.68
2022-12-23T09:40:37.289Z,23.55
2022-12-23T09:43:37.497Z,18.38
2022-12-23T09:46:26.705Z,21.02
2022-12-23T09:49:24.823Z,18.08
2022-12-23T09:52:23.067Z,21.27
2022-12-23T09:55:18.618Z,16.05
2022-12-23T09:58:01.425Z,19.23
2022-12-23T10:00:43.640Z,17.15
2022-12-23T10:03:28.951Z,20.20
2022-12-23T10:06:20.468Z,27.75
2022-12-23T10:08:54.775Z,15.50
2022-12-23T10:11:57.462Z,11.10
2022-12-23T10:14:31.730Z,13.35
2022-12-23T10:17:05.993Z,12.13
2022-12-23T10:19:44.262Z,17.67
2022-12-23T10:24:48.662Z,14.30
2022-12-23T10:27:26.769Z,11.77
2022-12-23T10:29:56.980Z,11.75
2022-12-23T10:32:47.001Z,13.63
2022-12-23T10:35:58.177Z,13.02
2022-12-23T10:38:52.755Z,17.08
2022-12-23T10:41:23.061Z,14.52
2022-12-23T10:45:00.207Z,14.43
2022-12-23T10:48:11.939Z,20.65
2022-12-23T10:50:52.443Z,16.90
2022-12-23T10:53:59.127Z,20.45
2022-12-23T10:56:31.451Z,18.55
2022-12-23T10:59:04.656Z,24.08
2022-12-23T11:01:41.465Z,19.60
2022-12-23T11:04:31.693Z,24.25
2022-12-23T11:07:42.691Z,20.35
2022-12-23T11:10:20.805Z,19.08
2022-12-23T11:12:56.709Z,13.98
2022-12-23T11:18:43.839Z,14.20
2022-12-23T11:21:15.373Z,17.33
2022-12-23T11:24:02.735Z,14.88
2022-12-23T11:27:01.917Z,10.93
2022-12-23T11:29:50.903Z,10.27
2022-12-23T11:32:26.724Z,15.18
2022-12-23T11:35:03.279Z,16.88
2022-12-23T11:37:42.030Z,20.98
2022-12-23T11:40:40.565Z,20.33
2022-12-23T11:43:19.021Z,20.92
2022-12-23T11:46:27.743Z,28.05
2022-12-23T11:49:25.711Z,18.73
2022-12-23T11:52:12.556Z,19.77
2022-12-23T11:54:57.252Z,22.33
2022-12-23T11:57:38.586Z,18.63
2022-12-23T12:00:14.150Z,17.45
2022-12-23T12:03:11.713Z,15.52
2022-12-23T12:05:46.880Z,16.08
2022-12-23T12:08:36.602Z,18.40
2022-12-23T12:11:17.403Z,19.63
2022-12-23T12:16:55.997Z,13.65
2022-12-23T12:19:45.629Z,16.02
2022-12-23T12:22:38.859Z,14.35
2022-12-23T12:25:39.966Z,16.65
2022-12-23T12:28:28.952Z,18.05
2022-12-23T12:31:14.208Z,21.52
2022-12-23T12:33:59.438Z,19.65
2022-12-23T12:37:08.956Z,17.38
2022-12-23T12:40:06.576Z,16.00
2022-12-23T12:43:04.331Z,14.35
2022-12-23T12:46:04.636Z,10.38
2022-12-23T12:48:47.208Z,18.10
2022-12-23T12:51:49.453Z,16.60
2022-12-23T12:54:44.817Z,18.52
2022-12-23T12:57:27.576Z,17.77
2022-12-23T13:00:06.409Z,13.30
2022-12-23T13:03:00.799Z,15.15
2022-12-23T13:06:11.170Z,12.75
2022-12-23T13:09:18.288Z,13.48
2022-12-23T13:12:25.197Z,12.73
2022-12-23T13:15:32.550Z,12.57
2022-12-23T13:18:23.719Z,12.43
2022-12-23T13:21:17.013Z,14.55
2022-12-23T13:24:10.654Z,11.27
2022-12-23T13:26:46.053Z,10.35
2022-12-23T13:29:56.138Z,13.27
2022-12-23T13:33:08.130Z,12.07
2022-12-23T13:35:35.576Z,19.90
2022-12-23T13:38:20.340Z,13.90
2022-12-23T13:41:13.124Z,21.30
2022-12-23T13:43:49.705Z,12.85
2022-12-23T13:46:23.787Z,11.00
2022-12-23T13:48:53.807Z,16.98
2022-12-23T13:51:41.666Z,17.70
2022-12-23T13:54:15.077Z,13.35
2022-12-23T13:57:11.150Z,19.30
2022-12-23T13:59:44.775Z,17.30
2022-12-23T14:02:36.888Z,18.50
2022-12-23T14:05:37.979Z,17.52
2022-12-23T14:08:07.321Z,15.68
2022-12-23T14:10:41.286Z,19.40
2022-12-23T14:13:09.452Z,26.33
2022-12-23T14:16:05.997Z,20.20
2022-12-23T14:19:09.570Z,21.50
2022-12-23T14:22:17.318Z,17.38
2022-12-23T14:25:06.498Z,11.90
2022-12-23T14:28:13.786Z,16.38
2022-12-23T14:30:48.922Z,14.35
2022-12-23T14:33:19.118Z,14.95
2022-12-23T14:36:26.866Z,13.48
2022-12-23T14:39:12.668Z,16.70
2022-12-23T14:41:58.714Z,14.80
2022-12-23T14:44:38.526Z,14.88
2022-12-23T14:47:33.577Z,19.05
2022-12-23T14:50:34.901Z,14.77
2022-12-23T14:53:31.803Z,13.88
2022-12-23T14:56:32.267Z,14.05
2022-12-23T14:59:28.114Z,14.70
2022-12-23T15:02:25.988Z,13.63
2022-12-23T15:05:00.064Z,14.50
2022-12-23T15:07:43.096Z,13.55
2022-12-23T15:10:39.483Z,11.70
2022-12-23T15:13:20.249Z,15.95
2022-12-23T15:16:01.246Z,14.00
2022-12-23T15:18:37.086Z,14.00
2022-12-23T15:21:11.377Z,13.50
2022-12-23T15:23:50.906Z,12.90
2022-12-23T15:26:21.049Z,12.68
2022-12-23T15:28:48.506Z,14.18
2022-12-23T15:31:36.802Z,12.32
2022-12-23T15:34:16.647Z,13.02
2022-12-23T15:36:48.721Z,13.57
2022-12-23T15:39:22.495Z,17.10
2022-12-23T15:41:50.261Z,15.43
2022-12-23T15:44:45.231Z,18.42
2022-12-23T15:47:29.714Z,15.85
2022-12-23T15:50:00.171Z,16.98
2022-12-23T15:52:32.804Z,21.15
2022-12-23T15:55:29.703Z,13.98
2022-12-23T15:58:01.565Z,18.20
2022-12-23T16:00:38.908Z,12.07
2022-12-23T16:03:22.158Z,16.58
2022-12-23T16:05:50.718Z,25.15
2022-12-23T16:08:29.014Z,14.70
2022-12-23T16:11:06.500Z,15.07
2022-12-23T16:13:35.384Z,18.00
2022-12-23T16:16:42.607Z,17.92
2022-12-23T16:19:38.645Z,12.80
2022-12-23T16:22:32.184Z,12.55
2022-12-23T16:25:15.570Z,13.70
2022-12-23T16:28:11.989Z,12.27
2022-12-23T16:30:54.496Z,13.77
2022-12-23T16:33:37.265Z,12.60
2022-12-23T16:36:33.662Z,7.75
2022-12-23T16:39:12.317Z,10.07
2022-12-23T16:41:42.797Z,13.90
2022-12-23T16:44:09.967Z,13.18
2022-12-23T16:46:40.098Z,12.25
2022-12-23T16:49:12.252Z,14.40
2022-12-23T16:51:56.146Z,17.35
2022-12-23T16:54:26.361Z,19.33
2022-12-23T16:56:53.844Z,10.73
2022-12-23T16:59:28.753Z,16.38
2022-12-23T17:02:03.131Z,11.35
2022-12-23T17:04:33.782Z,8.15
2022-12-23T17:07:05.988Z,8.10
2022-12-23T17:09:33.356Z,9.80
2022-12-23T17:12:02.672Z,10.82
2022-12-23T17:14:30.400Z,12.38
2022-12-23T17:16:58.525Z,12.23
2022-12-23T17:19:29.268Z,11.90
2022-12-23T17:22:01.329Z,14.30
2022-12-23T17:24:37.538Z,13.25
2022-12-23T17:27:25.384Z,15.15
2022-12-23T17:29:53.762Z,10.85
2022-12-23T17:32:24.422Z,9.00
2022-12-23T17:34:52.872Z,8.27
2022-12-23T17:37:23.001Z,7.43
2022-12-23T17:39:51.526Z,6.30
2022-12-23T17:42:25.766Z,5.15
2022-12-23T17:44:54.399Z,8.57
2022-12-23T17:47:22.704Z,6.32
2022-12-23T17:49:50.028Z,7.82
2022-12-23T17:52:20.688Z,10.73
2022-12-23T17:54:49.955Z,8.38
2022-12-23T17:57:31.152Z,12.95
2022-12-23T18:00:03.032Z,20.40
2022-12-23T18:02:36.748Z,17.70
2022-12-23T18:05:28.525Z,9.27
2022-12-23T18:10:39.092Z,12.02
2022-12-23T18:13:24.003Z,9.77
2022-12-23T18:15:56.975Z,11.63
2022-12-23T18:18:37.969Z,10.38
2022-12-23T18:21:17.858Z,13.50
2022-12-23T18:23:54.416Z,11.73
2022-12-23T18:26:24.377Z,11.30
2022-12-23T18:28:55.370Z,11.80
2022-12-23T18:31:24.675Z,8.00
2022-12-23T18:33:58.666Z,8.43
2022-12-23T18:36:28.663Z,9.20
2022-12-23T18:38:57.601Z,11.82
2022-12-23T18:41:34.976Z,12.68
2022-12-23T18:44:16.870Z,12.27
2022-12-23T18:46:54.788Z,10.48
2022-12-23T18:49:26.849Z,10.57
2022-12-23T18:52:08.530Z,11.20
2022-12-23T18:54:39.818Z,10.07
2022-12-23T18:57:11.284Z,7.07
2022-12-23T18:59:39.836Z,6.63
2022-12-23T19:02:08.220Z,7.15
2022-12-23T19:04:38.862Z,7.93
2022-12-23T19:07:06.839Z,8.25
2022-12-23T19:09:37.655Z,7.68
2022-12-23T19:12:05.832Z,9.18
2022-12-23T19:14:33.606Z,13.63
2022-12-23T19:17:01.973Z,12.77
2022-12-23T19:19:35.385Z,11.15
2022-12-23T19:22:03.063Z,14.75
2022-12-23T19:24:51.948Z,7.88
2022-12-23T19:27:25.255Z,7.78
2022-12-23T19:29:55.182Z,5.78
2022-12-23T19:32:26.036Z,8.27
2022-12-23T19:34:55.399Z,7.18
2022-12-23T19:37:25.225Z,6.13
2022-12-23T19:39:52.421Z,5.55
2022-12-23T19:42:26.887Z,5.60
2022-12-23T19:44:55.506Z,3.10
2022-12-23T19:47:27.572Z,3.38
2022-12-23T19:49:55.413Z,3.20
2022-12-23T19:52:30.570Z,3.40
2022-12-23T19:54:59.878Z,3.38
2022-12-23T19:57:30.358Z,3.40
2022-12-23T20:00:02.946Z,2.72
2022-12-23T20:02:35.884Z,2.20
2022-12-23T20:05:03.230Z,3.55
2022-12-23T20:07:30.440Z,2.17
2022-12-23T20:09:57.595Z,3.00
2022-12-23T20:12:28.120Z,2.80
2022-12-23T20:14:55.606Z,2.95
2022-12-23T20:17:22.887Z,1.45
2022-12-23T20:19:50.866Z,2.50
2022-12-23T20:22:18.062Z,2.72
2022-12-23T20:24:45.575Z,2.28
2022-12-23T20:27:20.139Z,1.15
2022-12-23T20:29:49.919Z,1.17
2022-12-23T20:32:22.853Z,1.65
2022-12-23T20:34:52.677Z,1.08
2022-12-23T20:37:20.552Z,2.38
2022-12-23T20:39:47.849Z,1.00
2022-12-23T20:42:18.050Z,2.60
2022-12-23T20:44:46.332Z,2.50
2022-12-23T20:47:16.318Z,3.30
2022-12-23T20:49:46.469Z,1.88
2022-12-23T20:52:13.799Z,2.03
2022-12-23T20:54:44.151Z,2.10
2022-12-23T20:57:14.977Z,1.38
2022-12-23T20:59:45.015Z,2.70
2022-12-23T21:02:19.151Z,2.80
2022-12-23T21:04:55.310Z,2.63
2022-12-23T21:07:26.369Z,1.45
2022-12-23T21:09:53.415Z,2.15
2022-12-23T21:12:32.277Z,4.47
2022-12-23T21:15:02.732Z,1.95
2022-12-23T21:17:36.840Z,2.08
2022-12-23T21:22:41.379Z,0.82
2022-12-23T21:25:11.107Z,2.33
2022-12-23T21:27:43.001Z,1.35
2022-12-23T21:30:20.052Z,0.85
2022-12-23T21:32:48.281Z,1.85
2022-12-23T21:35:18.642Z,0.90
2022-12-23T21:37:46.181Z,0.82
2022-12-23T21:40:17.285Z,2.22
2022-12-23T21:42:46.132Z,1.60
2022-12-23T21:45:13.748Z,1.10
2022-12-23T21:47:41.417Z,0.80
2022-12-23T21:50:12.951Z,0.73
2022-12-23T21:52:40.884Z,2.20
2022-12-23T21:55:10.719Z,1.88
2022-12-23T21:57:39.919Z,1.75
2022-12-23T22:00:07.998Z,2.65
2022-12-23T22:02:35.524Z,1.02
2022-12-23T22:05:06.320Z,2.17
2022-12-23T22:07:33.528Z,1.92
2022-12-23T22:10:00.593Z,2.55
2022-12-23T22:12:32.107Z,4.43
2022-12-23T22:14:59.757Z,7.75
2022-12-23T22:17:26.879Z,13.10
2022-12-23T22:19:57.619Z,12.80
2022-12-23T22:22:28.621Z,18.08
2022-12-23T22:24:56.141Z,23.55
2022-12-23T22:27:23.945Z,23.38
2022-12-23T22:29:59.795Z,25.17
2022-12-23T22:32:39.071Z,24.92
2022-12-23T22:35:09.822Z,19.98
2022-12-23T22:37:43.668Z,12.23
2022-12-23T22:40:13.990Z,8.60
2022-12-23T22:42:42.078Z,3.55
2022-12-23T22:45:15.673Z,2.40
2022-12-23T22:47:45.537Z,1.85
2022-12-23T22:50:15.374Z,0.93
2022-12-23T22:52:48.335Z,1.10
2022-12-23T22:55:15.532Z,3.75
2022-12-23T22:57:43.395Z,5.35
2022-12-23T23:00:12.952Z,7.22
2022-12-23T23:02:40.572Z,5.30
2022-12-23T23:05:13.234Z,6.85
2022-12-23T23:07:40.593Z,5.03
2022-12-23T23:10:08.976Z,3.95
2022-12-23T23:12:38.896Z,5.43
2022-12-23T23:15:13.316Z,7.18
2022-12-23T23:17:42.901Z,9.00
2022-12-23T23:20:15.024Z,6.65
2022-12-23T23:22:44.722Z,8.38
2022-12-23T23:25:15.936Z,6.93
2022-12-23T23:27:46.830Z,6.10
2022-12-23T23:30:19.903Z,6.78
2022-12-23T23:32:54.998Z,9.23
2022-12-23T23:35:22.711Z,7.80
2022-12-23T23:37:49.938Z,10.13
2022-12-23T23:40:22.428Z,6.90
2022-12-23T23:42:49.979Z,5.10
2022-12-23T23:45:17.150Z,4.10
2022-12-23T23:47:44.595Z,4.63
2022-12-23T23:50:12.314Z,2.60
2022-12-23T23:52:39.472Z,3.80
2022-12-23T23:55:07.473Z,4.13
2022-12-23T23:57:38.380Z,4.47
